createdAt,value
2018-02-24T00:00:49.757Z,10.73
2018-02-24T00:03:17.855Z,10.77
2018-02-24T00:05:45.987Z,11.03
2018-02-24T00:08:14.113Z,10.70
2018-02-24T00:10:42.241Z,11.87
2018-02-24T00:13:10.381Z,11.80
2018-02-24T00:15:39.271Z,11.40
2018-02-24T00:18:07.504Z,10.00
2018-02-24T00:20:35.573Z,11.70
2018-02-24T00:23:05.621Z,12.17
2018-02-24T00:25:34.504Z,10.90
2018-02-24T00:28:02.605Z,10.97
2018-02-24T00:30:31.475Z,11.60
2018-02-24T00:33:00.473Z,12.23
2018-02-24T00:35:28.821Z,12.40
2018-02-24T00:37:56.932Z,13.33
2018-02-24T00:40:25.801Z,12.27
2018-02-24T00:42:53.917Z,12.00
2018-02-24T00:45:22.028Z,12.17
2018-02-24T00:47:50.139Z,13.17
2018-02-24T00:50:18.998Z,11.50
2018-02-24T00:52:47.129Z,11.23
2018-02-24T00:55:15.263Z,12.60
2018-02-24T00:57:43.382Z,12.07
2018-02-24T01:00:11.492Z,12.60
2018-02-24T01:02:39.627Z,13.67
2018-02-24T01:05:07.797Z,12.10
2018-02-24T01:07:35.884Z,12.83
2018-02-24T01:10:04.039Z,12.90
2018-02-24T01:12:32.164Z,12.30
2018-02-24T01:15:00.263Z,12.17
2018-02-24T01:17:29.148Z,12.37
2018-02-24T01:19:58.015Z,12.30
2018-02-24T01:22:26.147Z,12.00
2018-02-24T01:24:54.252Z,14.20
2018-02-24T01:27:22.355Z,13.40
2018-02-24T01:29:50.472Z,13.23
2018-02-24T01:32:18.595Z,12.50
2018-02-24T01:34:47.460Z,13.30
2018-02-24T01:37:15.579Z,13.90
2018-02-24T01:39:43.689Z,15.30
2018-02-24T01:42:11.792Z,15.13
2018-02-24T01:44:39.889Z,15.97
2018-02-24T01:47:07.997Z,15.40
2018-02-24T01:49:36.110Z,15.27
2018-02-24T01:52:04.211Z,15.43
2018-02-24T01:54:33.101Z,15.60
2018-02-24T01:57:02.309Z,15.80
2018-02-24T01:59:30.453Z,16.20
2018-02-24T02:01:58.576Z,15.20
2018-02-24T02:04:26.687Z,17.60
2018-02-24T02:06:54.786Z,16.30
2018-02-24T02:09:23.645Z,15.50
2018-02-24T02:11:51.773Z,15.97
2018-02-24T02:14:19.890Z,18.00
2018-02-24T02:16:48.009Z,15.67
2018-02-24T02:19:16.113Z,16.80
2018-02-24T02:21:44.220Z,17.70
2018-02-24T02:24:12.338Z,16.50
2018-02-24T02:26:40.487Z,16.37
2018-02-24T02:29:08.605Z,16.43
2018-02-24T02:31:36.702Z,16.97
2018-02-24T02:34:04.855Z,16.90
2018-02-24T02:36:32.916Z,16.80
2018-02-24T02:39:01.019Z,15.20
2018-02-24T02:41:29.133Z,16.37
2018-02-24T02:43:57.212Z,17.90
2018-02-24T02:46:25.308Z,16.23
2018-02-24T02:48:53.432Z,16.50
2018-02-24T02:51:22.303Z,16.30
2018-02-24T02:53:50.404Z,16.77
2018-02-24T02:56:18.517Z,15.40
2018-02-24T02:58:46.616Z,16.37
2018-02-24T03:01:14.744Z,16.50
2018-02-24T03:03:42.836Z,17.07
2018-02-24T03:06:10.945Z,17.00
2018-02-24T03:08:39.975Z,17.17
2018-02-24T03:11:08.079Z,16.70
2018-02-24T03:13:36.205Z,15.50
2018-02-24T03:16:04.312Z,16.33
2018-02-24T03:18:32.423Z,15.47
2018-02-24T03:21:00.572Z,15.63
2018-02-24T03:23:28.668Z,16.67
2018-02-24T03:25:56.800Z,16.13
2018-02-24T03:28:24.931Z,18.00
2018-02-24T03:30:53.805Z,16.10
2018-02-24T03:33:21.896Z,15.93
2018-02-24T03:35:50.789Z,15.13
2018-02-24T03:38:19.660Z,15.63
2018-02-24T03:40:47.771Z,16.80
2018-02-24T03:43:15.870Z,15.67
2018-02-24T03:46:00.723Z,14.97
2018-02-24T03:48:28.856Z,16.63
2018-02-24T03:50:56.973Z,15.40
2018-02-24T03:53:25.083Z,16.13
2018-02-24T03:55:53.183Z,16.80
2018-02-24T03:58:22.080Z,15.70
2018-02-24T04:00:50.188Z,16.73
2018-02-24T04:03:18.333Z,16.17
2018-02-24T04:05:46.433Z,14.53
2018-02-24T04:08:14.518Z,15.77
2018-02-24T04:10:42.619Z,15.53
2018-02-24T04:13:10.732Z,15.63
2018-02-24T04:15:38.892Z,15.40
2018-02-24T04:18:07.000Z,15.60
2018-02-24T04:20:35.151Z,14.53
2018-02-24T04:23:03.249Z,14.73
2018-02-24T04:25:31.367Z,14.97
2018-02-24T04:28:00.254Z,14.80
2018-02-24T04:30:29.147Z,15.57
2018-02-24T04:32:58.003Z,14.17
2018-02-24T04:35:26.106Z,14.37
2018-02-24T04:37:54.979Z,14.03
2018-02-24T04:40:23.072Z,13.53
2018-02-24T04:42:51.956Z,14.43
2018-02-24T04:45:20.069Z,13.70
2018-02-24T04:47:48.184Z,15.13
2018-02-24T04:50:16.279Z,14.20
2018-02-24T04:52:44.399Z,13.67
2018-02-24T04:55:12.480Z,15.40
2018-02-24T04:57:40.592Z,15.10
2018-02-24T05:00:08.694Z,14.83
2018-02-24T05:02:36.845Z,15.00
2018-02-24T05:05:05.740Z,14.07
2018-02-24T05:07:34.589Z,12.80
2018-02-24T05:10:02.744Z,13.30
2018-02-24T05:12:30.838Z,14.47
2018-02-24T05:14:58.954Z,13.70
2018-02-24T05:17:27.834Z,13.40
2018-02-24T05:19:56.679Z,13.07
2018-02-24T05:22:24.783Z,13.00
2018-02-24T05:24:52.914Z,13.60
2018-02-24T05:27:21.032Z,13.13
2018-02-24T05:29:49.164Z,12.67
2018-02-24T05:32:17.696Z,13.77
2018-02-24T05:34:45.800Z,13.50
2018-02-24T05:37:13.893Z,13.73
2018-02-24T05:39:41.995Z,12.70
2018-02-24T05:42:10.097Z,13.67
2018-02-24T05:44:38.211Z,13.80
2018-02-24T05:47:07.200Z,12.87
2018-02-24T05:49:35.638Z,13.77
2018-02-24T05:52:04.325Z,12.30
2018-02-24T05:54:32.597Z,13.47
2018-02-24T05:57:01.485Z,13.90
2018-02-24T05:59:29.587Z,13.13
2018-02-24T06:01:57.708Z,14.23
2018-02-24T06:04:25.816Z,12.83
2018-02-24T06:06:54.700Z,12.60
2018-02-24T06:09:23.564Z,12.63
2018-02-24T06:11:51.688Z,12.70
2018-02-24T06:14:19.801Z,12.37
2018-02-24T06:16:47.914Z,13.43
2018-02-24T06:19:16.782Z,12.50
2018-02-24T06:21:44.876Z,12.10
2018-02-24T06:24:12.999Z,13.67
2018-02-24T06:26:41.091Z,13.87
2018-02-24T06:29:09.196Z,13.40
2018-02-24T06:31:38.067Z,11.70
2018-02-24T06:34:06.233Z,14.03
2018-02-24T06:36:34.335Z,13.80
2018-02-24T06:39:03.212Z,14.20
2018-02-24T06:41:31.313Z,14.57
2018-02-24T06:43:59.440Z,14.80
2018-02-24T06:46:27.567Z,13.90
2018-02-24T06:48:55.677Z,15.57
2018-02-24T06:51:23.792Z,13.37
2018-02-24T06:53:52.675Z,14.07
2018-02-24T06:56:25.187Z,13.20
2018-02-24T06:58:53.297Z,13.70
2018-02-24T07:01:21.393Z,14.13
2018-02-24T07:03:50.283Z,13.97
2018-02-24T07:06:18.410Z,15.60
2018-02-24T07:08:46.498Z,13.57
2018-02-24T07:11:14.608Z,12.90
2018-02-24T07:13:42.728Z,16.73
2018-02-24T07:16:10.852Z,16.33
2018-02-24T07:18:39.729Z,14.90
2018-02-24T07:21:07.877Z,14.50
2018-02-24T07:23:36.048Z,14.37
2018-02-24T07:26:04.197Z,14.47
2018-02-24T07:28:33.033Z,15.77
2018-02-24T07:31:01.167Z,13.93
2018-02-24T07:33:29.277Z,14.57
2018-02-24T07:35:57.461Z,12.90
2018-02-24T07:38:25.577Z,14.33
2018-02-24T07:40:53.664Z,14.40
2018-02-24T07:43:21.750Z,14.93
2018-02-24T07:45:49.871Z,13.77
2018-02-24T07:48:17.973Z,12.87
2018-02-24T07:50:46.057Z,12.80
2018-02-24T07:53:14.178Z,14.80
2018-02-24T07:55:43.037Z,12.47
2018-02-24T07:58:11.155Z,12.10
2018-02-24T08:00:39.252Z,15.57
2018-02-24T08:03:07.393Z,15.33
2018-02-24T08:05:36.248Z,14.00
2018-02-24T08:08:04.366Z,15.07
2018-02-24T08:10:32.456Z,13.17
2018-02-24T08:13:00.576Z,13.13
2018-02-24T08:15:28.687Z,13.10
2018-02-24T08:17:56.786Z,12.33
2018-02-24T08:20:24.907Z,11.77
2018-02-24T08:22:53.007Z,11.50
2018-02-24T08:25:21.135Z,10.80
2018-02-24T08:27:49.220Z,9.10
2018-02-24T08:30:18.087Z,10.93
2018-02-24T08:32:46.212Z,9.90
2018-02-24T08:35:14.308Z,9.43
2018-02-24T08:37:43.204Z,9.70
2018-02-24T08:40:12.054Z,8.83
2018-02-24T08:42:40.937Z,9.73
2018-02-24T08:45:09.830Z,8.90
2018-02-24T08:47:38.690Z,9.53
2018-02-24T08:50:06.814Z,10.10
2018-02-24T08:52:34.928Z,8.97
2018-02-24T08:55:03.031Z,9.90
2018-02-24T08:57:31.152Z,9.60
2018-02-24T08:59:59.253Z,9.07
2018-02-24T09:02:27.392Z,10.20
2018-02-24T09:04:56.423Z,10.10
2018-02-24T09:07:24.511Z,8.90
2018-02-24T09:09:52.624Z,10.10
2018-02-24T09:12:20.735Z,8.30
2018-02-24T09:14:48.826Z,11.17
2018-02-24T09:17:16.936Z,8.47
2018-02-24T09:19:45.066Z,7.97
2018-02-24T09:22:13.221Z,8.83
2018-02-24T09:24:41.288Z,8.80
2018-02-24T09:27:09.393Z,9.27
2018-02-24T09:29:38.271Z,8.47
2018-02-24T09:32:06.400Z,7.70
2018-02-24T09:34:34.516Z,8.70
2018-02-24T09:37:02.623Z,7.80
2018-02-24T09:39:31.584Z,7.50
2018-02-24T09:41:59.724Z,7.93
2018-02-24T09:44:31.365Z,7.87
2018-02-24T09:46:59.449Z,8.20
2018-02-24T09:49:27.563Z,8.50
2018-02-24T09:51:56.403Z,8.23
2018-02-24T09:54:24.495Z,8.20
2018-02-24T09:56:52.592Z,6.97
2018-02-24T09:59:20.684Z,8.00
2018-02-24T10:01:48.792Z,8.07
2018-02-24T10:04:16.892Z,9.13
2018-02-24T10:06:44.979Z,8.47
2018-02-24T10:09:13.081Z,7.30
2018-02-24T10:11:41.970Z,9.13
2018-02-24T10:14:10.086Z,8.80
2018-02-24T10:16:38.679Z,8.60
2018-02-24T10:19:07.139Z,9.10
2018-02-24T10:21:35.256Z,11.00
2018-02-24T10:24:03.376Z,9.53
2018-02-24T10:26:31.488Z,8.33
2018-02-24T10:28:59.595Z,8.53
2018-02-24T10:31:27.705Z,9.03
2018-02-24T10:33:55.809Z,7.73
2018-02-24T10:36:24.678Z,8.93
2018-02-24T10:38:52.780Z,8.70
2018-02-24T10:41:20.925Z,8.27
2018-02-24T10:43:50.059Z,8.60
2018-02-24T10:46:18.952Z,8.10
2018-02-24T10:48:47.286Z,9.10
2018-02-24T10:51:15.418Z,7.00
2018-02-24T10:53:44.355Z,7.00
2018-02-24T10:56:12.866Z,8.47
2018-02-24T10:58:41.110Z,8.60
2018-02-24T11:01:09.401Z,7.53
2018-02-24T11:03:37.509Z,7.83
2018-02-24T11:06:05.741Z,7.97
2018-02-24T11:08:33.937Z,7.37
2018-02-24T11:11:02.033Z,7.87
2018-02-24T11:13:30.898Z,7.47
2018-02-24T11:15:59.006Z,6.40
2018-02-24T11:18:27.101Z,7.43
2018-02-24T11:20:55.376Z,6.80
2018-02-24T11:23:24.579Z,8.27
2018-02-24T11:25:53.184Z,7.73
2018-02-24T11:28:21.433Z,6.73
2018-02-24T11:30:49.604Z,6.33
2018-02-24T11:33:17.944Z,7.10
2018-02-24T11:35:46.289Z,7.20
2018-02-24T11:38:15.586Z,6.40
2018-02-24T11:40:44.416Z,5.90
2018-02-24T11:43:12.741Z,7.10
2018-02-24T11:45:40.825Z,6.80
2018-02-24T11:48:08.935Z,7.87
2018-02-24T11:50:37.032Z,6.80
2018-02-24T11:53:05.121Z,6.20
2018-02-24T11:55:33.248Z,7.00
2018-02-24T11:58:02.139Z,5.93
2018-02-24T12:00:30.262Z,7.00
2018-02-24T12:02:58.355Z,6.90
2018-02-24T12:05:26.454Z,6.43
2018-02-24T12:07:54.568Z,7.10
2018-02-24T12:10:22.670Z,7.20
2018-02-24T12:12:50.781Z,7.13
2018-02-24T12:15:18.878Z,8.83
2018-02-24T12:17:46.996Z,7.00
2018-02-24T12:20:15.857Z,7.23
2018-02-24T12:22:43.972Z,7.37
2018-02-24T12:25:12.063Z,7.80
2018-02-24T12:27:40.155Z,7.30
2018-02-24T12:30:08.257Z,7.50
2018-02-24T12:32:36.368Z,8.00
2018-02-24T12:35:04.461Z,7.10
2018-02-24T12:37:33.315Z,7.13
2018-02-24T12:40:01.421Z,6.20
2018-02-24T12:42:32.375Z,6.60
2018-02-24T12:45:00.477Z,6.70
2018-02-24T12:47:28.568Z,7.50
2018-02-24T12:49:56.721Z,7.50
2018-02-24T12:52:24.779Z,6.63
2018-02-24T12:54:52.877Z,6.03
2018-02-24T12:57:20.965Z,6.60
2018-02-24T12:59:49.064Z,6.90
2018-02-24T13:02:17.926Z,6.67
2018-02-24T13:04:46.032Z,7.37
2018-02-24T13:07:14.893Z,7.60
2018-02-24T13:09:43.004Z,6.77
2018-02-24T13:12:11.872Z,7.43
2018-02-24T13:14:39.959Z,7.40
2018-02-24T13:17:08.834Z,5.90
2018-02-24T13:19:36.921Z,7.13
2018-02-24T13:22:05.780Z,7.30
2018-02-24T13:24:33.877Z,6.60
2018-02-24T13:27:02.727Z,7.23
2018-02-24T13:29:30.840Z,6.60
2018-02-24T13:31:59.687Z,6.30
2018-02-24T13:34:27.781Z,5.60
2018-02-24T13:36:55.875Z,5.90
2018-02-24T13:39:24.769Z,6.30
2018-02-24T13:41:53.628Z,5.80
2018-02-24T13:44:21.748Z,7.50
2018-02-24T13:46:50.201Z,6.80
2018-02-24T13:49:18.322Z,5.60
2018-02-24T13:51:46.427Z,6.97
2018-02-24T13:54:16.761Z,5.40
2018-02-24T13:56:53.364Z,6.30
2018-02-24T13:59:22.380Z,6.17
2018-02-24T14:01:50.993Z,5.27
2018-02-24T14:04:19.484Z,6.20
2018-02-24T14:06:48.360Z,7.10
2018-02-24T14:09:16.687Z,6.10
2018-02-24T14:11:44.744Z,7.20
2018-02-24T14:14:12.828Z,5.23
2018-02-24T14:16:41.695Z,6.47
2018-02-24T14:19:09.802Z,5.33
2018-02-24T14:21:37.912Z,5.50
2018-02-24T14:24:06.018Z,5.87
2018-02-24T14:26:34.117Z,5.70
2018-02-24T14:29:02.203Z,4.97
2018-02-24T14:31:30.300Z,5.40
2018-02-24T14:33:58.413Z,7.00
2018-02-24T14:36:26.531Z,7.30
2018-02-24T14:38:54.641Z,5.27
2018-02-24T14:41:22.748Z,5.73
2018-02-24T14:43:51.607Z,5.17
2018-02-24T14:46:19.740Z,4.97
2018-02-24T14:48:47.841Z,5.13
2018-02-24T14:51:15.952Z,5.33
2018-02-24T14:53:44.046Z,5.67
2018-02-24T14:56:12.155Z,4.67
2018-02-24T14:58:40.259Z,4.87
2018-02-24T15:01:09.163Z,4.80
2018-02-24T15:03:38.052Z,4.73
2018-02-24T15:06:06.931Z,4.67
2018-02-24T15:08:36.050Z,4.67
2018-02-24T15:11:04.162Z,4.87
2018-02-24T15:13:32.259Z,4.70
2018-02-24T15:16:00.394Z,4.30
2018-02-24T15:18:28.477Z,4.30
2018-02-24T15:20:56.577Z,4.80
2018-02-24T15:23:24.665Z,3.87
2018-02-24T15:25:53.566Z,4.40
2018-02-24T15:28:22.446Z,4.63
2018-02-24T15:30:51.307Z,4.43
2018-02-24T15:33:19.401Z,4.53
2018-02-24T15:35:47.488Z,4.60
2018-02-24T15:38:15.608Z,5.40
2018-02-24T15:40:44.456Z,4.97
2018-02-24T15:43:13.355Z,6.03
2018-02-24T15:45:41.465Z,4.57
2018-02-24T15:48:09.575Z,5.63
2018-02-24T15:50:37.697Z,5.30
2018-02-24T15:53:05.794Z,5.37
2018-02-24T15:55:33.904Z,5.80
2018-02-24T15:58:02.756Z,6.17
2018-02-24T16:00:30.873Z,5.47
2018-02-24T16:02:59.745Z,5.30
2018-02-24T16:05:28.623Z,5.73
2018-02-24T16:07:56.757Z,5.47
2018-02-24T16:10:24.854Z,5.70
2018-02-24T16:12:52.976Z,5.97
2018-02-24T16:15:21.077Z,6.50
2018-02-24T16:17:49.176Z,6.47
2018-02-24T16:20:17.283Z,5.63
2018-02-24T16:22:46.161Z,5.50
2018-02-24T16:25:14.260Z,6.30
2018-02-24T16:27:42.365Z,6.37
2018-02-24T16:30:10.470Z,6.33
2018-02-24T16:32:38.560Z,6.97
2018-02-24T16:35:08.502Z,5.87
2018-02-24T16:37:36.628Z,6.40
2018-02-24T16:40:04.735Z,6.23
2018-02-24T16:42:32.853Z,7.80
2018-02-24T16:45:00.928Z,6.97
2018-02-24T16:47:29.057Z,6.53
2018-02-24T16:49:57.175Z,10.70
2018-02-24T16:52:25.281Z,10.40
2018-02-24T16:54:53.384Z,7.10
2018-02-24T16:57:21.492Z,8.00
2018-02-24T16:59:49.588Z,7.10
2018-02-24T17:02:17.748Z,7.93
2018-02-24T17:04:45.847Z,6.90
2018-02-24T17:07:14.740Z,6.47
2018-02-24T17:09:43.628Z,6.53
2018-02-24T17:12:12.581Z,7.07
2018-02-24T17:14:40.686Z,8.80
2018-02-24T17:17:08.779Z,7.70
2018-02-24T17:19:37.652Z,7.70
2018-02-24T17:22:05.759Z,7.30
2018-02-24T17:24:33.857Z,7.80
2018-02-24T17:27:01.986Z,8.70
2018-02-24T17:29:30.872Z,8.90
2018-02-24T17:31:59.731Z,8.03
2018-02-24T17:34:27.870Z,7.97
2018-02-24T17:36:55.979Z,9.10
2018-02-24T17:39:24.087Z,8.60
2018-02-24T17:41:52.971Z,8.10
2018-02-24T17:44:21.822Z,9.57
2018-02-24T17:46:49.936Z,7.60
2018-02-24T17:49:18.821Z,7.30
2018-02-24T17:51:46.969Z,6.37
2018-02-24T17:54:15.077Z,6.87
2018-02-24T17:56:43.931Z,7.30
2018-02-24T17:59:12.069Z,6.37
2018-02-24T18:01:40.180Z,7.27
2018-02-24T18:04:08.320Z,7.33
2018-02-24T18:06:36.455Z,7.47
2018-02-24T18:09:05.395Z,6.63
2018-02-24T18:11:33.524Z,5.63
2018-02-24T18:14:02.394Z,6.43
2018-02-24T18:16:30.502Z,6.40
2018-02-24T18:18:58.616Z,5.57
2018-02-24T18:21:26.744Z,5.73
2018-02-24T18:23:58.201Z,6.43
2018-02-24T18:26:27.273Z,5.83
2018-02-24T18:28:56.152Z,6.00
2018-02-24T18:31:24.288Z,6.20
2018-02-24T18:33:52.385Z,5.80
2018-02-24T18:36:20.499Z,7.20
2018-02-24T18:38:48.627Z,6.10
2018-02-24T18:41:16.754Z,5.60
2018-02-24T18:43:44.867Z,5.07
2018-02-24T18:46:12.989Z,4.73
2018-02-24T18:48:41.106Z,5.17
2018-02-24T18:51:09.264Z,4.80
2018-02-24T18:53:37.372Z,4.10
2018-02-24T18:56:05.504Z,4.27
2018-02-24T18:58:33.622Z,4.50
2018-02-24T19:01:01.743Z,3.77
2018-02-24T19:03:29.864Z,6.33
2018-02-24T19:05:57.974Z,3.80
2018-02-24T19:08:26.080Z,3.13
2018-02-24T19:10:54.209Z,4.30
2018-02-24T19:13:23.100Z,3.50
2018-02-24T19:15:54.020Z,3.53
2018-02-24T19:18:22.131Z,3.30
2018-02-24T19:20:50.261Z,3.23
2018-02-24T19:23:18.381Z,3.40
2018-02-24T19:25:46.487Z,2.60
2018-02-24T19:28:14.576Z,3.07
2018-02-24T19:30:42.750Z,2.60
2018-02-24T19:33:10.812Z,2.90
2018-02-24T19:35:38.917Z,3.40
2018-02-24T19:38:07.813Z,3.17
2018-02-24T19:40:36.689Z,2.87
2018-02-24T19:43:04.772Z,4.00
2018-02-24T19:45:33.649Z,2.63
2018-02-24T19:48:01.726Z,3.23
2018-02-24T19:50:29.847Z,3.03
2018-02-24T19:52:57.945Z,3.10
2018-02-24T19:55:26.036Z,2.80
2018-02-24T19:57:54.135Z,4.17
2018-02-24T20:00:22.253Z,2.93
2018-02-24T20:02:50.356Z,9.63
2018-02-24T20:05:18.491Z,8.10
2018-02-24T20:07:46.585Z,3.90
2018-02-24T20:10:14.682Z,3.33
2018-02-24T20:12:42.849Z,3.23
2018-02-24T20:15:10.964Z,3.30
2018-02-24T20:17:39.083Z,3.40
2018-02-24T20:20:07.159Z,3.80
2018-02-24T20:22:35.291Z,3.17
2018-02-24T20:25:03.416Z,3.03
2018-02-24T20:27:32.296Z,3.37
2018-02-24T20:30:00.376Z,3.60
2018-02-24T20:32:29.482Z,2.63
2018-02-24T20:34:57.583Z,2.83
2018-02-24T20:37:25.699Z,3.17
2018-02-24T20:39:53.796Z,3.17
2018-02-24T20:42:21.919Z,3.40
2018-02-24T20:44:50.032Z,3.67
2018-02-24T20:47:18.117Z,4.27
2018-02-24T20:49:47.003Z,4.13
2018-02-24T20:52:15.885Z,4.10
2018-02-24T20:54:44.044Z,2.93
2018-02-24T20:57:12.141Z,3.00
2018-02-24T20:59:40.229Z,3.60
2018-02-24T21:02:09.432Z,3.70
2018-02-24T21:04:37.537Z,3.50
2018-02-24T21:07:05.650Z,3.20
2018-02-24T21:09:33.778Z,3.07
2018-02-24T21:12:01.863Z,3.10
2018-02-24T21:14:29.964Z,2.80
2018-02-24T21:16:58.088Z,3.43
2018-02-24T21:19:26.208Z,2.90
2018-02-24T21:21:54.389Z,3.80
2018-02-24T21:24:22.453Z,2.93
2018-02-24T21:26:50.565Z,2.50
2018-02-24T21:29:18.667Z,2.80
2018-02-24T21:31:46.775Z,3.20
2018-02-24T21:34:14.859Z,3.00
2018-02-24T21:36:42.976Z,3.07
2018-02-24T21:39:11.126Z,3.13
2018-02-24T21:41:39.221Z,3.30
2018-02-24T21:44:07.327Z,3.27
2018-02-24T21:46:35.438Z,3.57
2018-02-24T21:49:03.557Z,3.50
2018-02-24T21:51:31.677Z,3.20
2018-02-24T21:53:59.769Z,3.23
2018-02-24T21:56:27.885Z,3.80
2018-02-24T21:58:55.998Z,2.87
2018-02-24T22:01:24.212Z,3.30
2018-02-24T22:03:52.311Z,3.20
2018-02-24T22:06:20.449Z,4.10
2018-02-24T22:08:48.546Z,4.03
2018-02-24T22:11:16.665Z,2.97
2018-02-24T22:13:44.769Z,3.70
2018-02-24T22:16:12.896Z,3.90
2018-02-24T22:18:41.776Z,3.23
2018-02-24T22:21:10.632Z,2.90
2018-02-24T22:23:38.754Z,8.70
2018-02-24T22:26:07.616Z,5.80
2018-02-24T22:28:35.725Z,3.93
2018-02-24T22:31:03.829Z,4.00
2018-02-24T22:33:31.952Z,3.47
2018-02-24T22:36:00.821Z,3.60
2018-02-24T22:38:28.927Z,4.10
2018-02-24T22:40:57.792Z,4.50
2018-02-24T22:43:25.933Z,4.10
2018-02-24T22:45:55.014Z,3.73
2018-02-24T22:48:28.568Z,2.97
2018-02-24T22:50:57.449Z,3.40
2018-02-24T22:53:25.539Z,3.60
2018-02-24T22:55:53.648Z,3.60
2018-02-24T22:58:21.764Z,3.40
2018-02-24T23:00:49.882Z,3.50
2018-02-24T23:03:17.968Z,3.40
2018-02-24T23:05:46.081Z,3.70
2018-02-24T23:08:14.271Z,2.90
2018-02-24T23:10:42.513Z,4.00
2018-02-24T23:13:10.620Z,3.23
2018-02-24T23:15:39.483Z,3.27
2018-02-24T23:18:07.591Z,3.83
2018-02-24T23:20:36.471Z,3.70
2018-02-24T23:23:04.573Z,3.10
2018-02-24T23:25:32.715Z,6.30
2018-02-24T23:28:00.809Z,9.20
2018-02-24T23:30:29.684Z,6.33
2018-02-24T23:32:58.542Z,6.80
2018-02-24T23:35:26.651Z,3.43
2018-02-24T23:37:55.558Z,3.07
2018-02-24T23:40:23.643Z,2.90
2018-02-24T23:42:51.749Z,3.20
2018-02-24T23:45:19.844Z,3.47
2018-02-24T23:47:47.939Z,3.80
2018-02-24T23:50:16.799Z,3.27
2018-02-24T23:52:44.924Z,3.00
2018-02-24T23:55:13.951Z,4.10
2018-02-24T23:57:42.060Z,8.63
